KSUW/SUW METAR and TAF weather

Enter ICAO airport designator
Station Type Date Time Source
KSUW METAR 2019/02/17 15:55 UTC NOAA

KSUW 171555Z AUTO 08009KT 10SM SCT031 M10/M12 A3017 RMK AO2 T10981125


Station Type Date Time Source
KSUW Decoded METAR 2019/02/17 15:55 UTC NOAA

Superior, Richard I. Bong Airport, WI, United States (KSUW) 46-41-23N 092-05-41W
Feb 17, 2019 - 10:55 AM EST / 2019.02.17 1555 UTC
Wind: from the E (080 degrees) at 10 MPH (9 KT):0
Visibility: 10 mile(s):0
Sky conditions: partly cloudy
Temperature: 14.4 F (-9.8 C)
Windchill: 1 F (-17 C):1
Dew Point: 9.5 F (-12.5 C)
Relative Humidity: 80%
Pressure (altimeter): 30.17 in. Hg (1021 hPa)
ob: KSUW 171555Z AUTO 08009KT 10SM SCT031 M10/M12 A3017 RMK AO2 T10981125
cycle: 16

Station Type Date Time Source
KSUW TAF UTC NOAA

Error!


Example: see airport list